Time;durP1;ratioP1;P1;durP2;ratioP2;P2;SDS_P1;SDS_P2;PMS_P1;PMS_P2;Temp;Humidity;BMP_temperature;BMP_pressure;BME280_temperature;BME280_humidity;BME280_pressure;Samples;Min_cycle;Max_cycle;Signal;HPM_P1;HPM_P2
2023/06/07 00:03:21;;;;;;;4.05;1.55;;;;;;;;;;10408931;28;20037;-64
2023/06/07 00:08:23;;;;;;;3.75;1.48;;;;;;;;;;10410640;28;20026;-64
2023/06/07 00:13:24;;;;;;;3.38;1.35;;;;;;;;;;10409960;28;20040;-64
2023/06/07 00:18:28;;;;;;;1.77;1.30;;;;;;;;;;10408994;28;20029;-64
2023/06/07 00:23:28;;;;;;;1.52;1.30;;;;;;;;;;10409689;28;20536;-64
2023/06/07 00:28:29;;;;;;;1.45;1.20;;;;;;;;;;10409600;28;20072;-65
2023/06/07 00:33:29;;;;;;;3.10;1.30;;;;;;;;;;10407715;28;20041;-65
2023/06/07 00:38:30;;;;;;;2.95;1.27;;;;;;;;;;10409391;28;20040;-64
2023/06/07 00:43:30;;;;;;;1.55;1.27;;;;;;;;;;10408197;28;20099;-64
2023/06/07 00:48:36;;;;;;;6.88;1.25;;;;;;;;;;10407787;28;20030;-64
2023/06/07 00:53:38;;;;;;;1.40;1.30;;;;;;;;;;10406473;28;20037;-63
2023/06/07 00:58:42;;;;;;;3.20;1.20;;;;;;;;;;10406383;28;20022;-63
2023/06/07 01:03:44;;;;;;;3.10;1.52;;;;;;;;;;10406867;28;20028;-59
2023/06/07 01:08:51;;;;;;;1.30;1.20;;;;;;;;;;10406186;28;20513;-59
2023/06/07 01:13:53;;;;;;;2.73;1.40;;;;;;;;;;10406765;28;20025;-64
2023/06/07 01:18:53;;;;;;;1.50;1.40;;;;;;;;;;10406377;28;20017;-64
2023/06/07 01:23:59;;;;;;;1.50;1.33;;;;;;;;;;10406300;28;20033;-63
2023/06/07 01:29:05;;;;;;;1.92;1.48;;;;;;;;;;10406487;28;20388;-64
2023/06/07 01:34:07;;;;;;;1.42;1.30;;;;;;;;;;10405109;28;20041;-63
2023/06/07 01:39:10;;;;;;;1.27;1.17;;;;;;;;;;10417106;28;20095;-63
2023/06/07 01:44:13;;;;;;;1.67;1.30;;;;;;;;;;10405175;28;20489;-63
2023/06/07 01:49:21;;;;;;;1.60;1.23;;;;;;;;;;10406218;28;20025;-64
2023/06/07 01:54:21;;;;;;;;;;;;;;;;;;10406813;28;20423;-63
2023/06/07 01:59:39;;;;;;;1.38;1.10;;;;;;;;;;10404376;28;19950;-63
2023/06/07 02:04:48;;;;;;;1.63;1.40;;;;;;;;;;10404110;28;20057;-63
2023/06/07 02:09:51;;;;;;;2.47;1.33;;;;;;;;;;10404202;28;20034;-64
2023/06/07 02:14:52;;;;;;;2.15;1.45;;;;;;;;;;10412822;28;20366;-63
2023/06/07 02:19:52;;;;;;;2.10;1.30;;;;;;;;;;10412039;28;20388;-63
2023/06/07 02:24:53;;;;;;;1.55;1.25;;;;;;;;;;10413270;28;20021;-63
2023/06/07 02:35:22;;;;;;;4.72;1.30;;;;;;;;;;10411837;28;20408;-63
2023/06/07 02:40:22;;;;;;;1.35;1.20;;;;;;;;;;10411350;28;20439;-64
2023/06/07 02:45:23;;;;;;;4.68;1.13;;;;;;;;;;10413023;28;20029;-65
2023/06/07 02:50:23;;;;;;;2.72;1.20;;;;;;;;;;10412350;28;20041;-64
2023/06/07 02:55:24;;;;;;;1.45;1.23;;;;;;;;;;10412730;28;20156;-63
2023/06/07 03:00:26;;;;;;;1.95;1.17;;;;;;;;;;10412527;28;20288;-64
2023/06/07 03:05:26;;;;;;;1.60;1.05;;;;;;;;;;10412771;28;20493;-63
2023/06/07 03:10:27;;;;;;;3.25;1.30;;;;;;;;;;10410439;28;20034;-64
2023/06/07 03:15:27;;;;;;;1.35;1.02;;;;;;;;;;10412096;28;20032;-65
2023/06/07 03:20:28;;;;;;;2.05;1.27;;;;;;;;;;10411748;28;20033;-66
2023/06/07 03:25:28;;;;;;;5.30;1.40;;;;;;;;;;10410741;28;20473;-64
2023/06/07 03:30:31;;;;;;;3.80;1.20;;;;;;;;;;10409964;28;20393;-63
2023/06/07 03:35:32;;;;;;;3.40;1.38;;;;;;;;;;10411623;28;20040;-64
2023/06/07 03:40:38;;;;;;;2.85;1.30;;;;;;;;;;10411117;28;20041;-65
2023/06/07 03:45:41;;;;;;;2.83;1.35;;;;;;;;;;10410472;28;20167;-65
2023/06/07 03:50:41;;;;;;;1.88;1.20;;;;;;;;;;10405781;28;20025;-65
2023/06/07 03:55:42;;;;;;;2.10;1.30;;;;;;;;;;10409499;28;20029;-65
2023/06/07 04:00:42;;;;;;;1.30;1.20;;;;;;;;;;10409756;28;20083;-64
2023/06/07 04:05:45;;;;;;;1.75;1.27;;;;;;;;;;10410073;28;20018;-64
2023/06/07 04:10:46;;;;;;;3.42;1.50;;;;;;;;;;10408759;28;20112;-64
2023/06/07 04:15:46;;;;;;;5.53;1.00;;;;;;;;;;10410039;28;20066;-65
2023/06/07 04:20:47;;;;;;;5.93;1.42;;;;;;;;;;10409522;28;20018;-64
2023/06/07 04:25:48;;;;;;;8.00;1.33;;;;;;;;;;10408331;28;20040;-66
2023/06/07 04:30:49;;;;;;;1.30;1.20;;;;;;;;;;10407771;28;20080;-65
2023/06/07 04:35:57;;;;;;;3.00;1.70;;;;;;;;;;10408524;28;20499;-65
2023/06/07 04:41:00;;;;;;;;;;;;;;;;;;10409638;28;20053;-64
2023/06/07 04:46:01;;;;;;;2.22;1.60;;;;;;;;;;10397124;28;19992;-66
2023/06/07 04:51:05;;;;;;;2.50;1.65;;;;;;;;;;10407782;28;20033;-65
2023/06/07 04:56:05;;;;;;;4.32;2.13;;;;;;;;;;10408069;28;20033;-65
2023/06/07 05:01:10;;;;;;;5.00;2.33;;;;;;;;;;10407244;28;20026;-65
2023/06/07 05:06:18;;;;;;;5.05;1.95;;;;;;;;;;10408806;28;20083;-64
2023/06/07 05:11:28;;;;;;;2.97;1.70;;;;;;;;;;10401697;28;20042;-64
2023/06/07 05:16:32;;;;;;;10.35;1.92;;;;;;;;;;10407936;28;20076;-64
2023/06/07 05:21:32;;;;;;;2.63;1.80;;;;;;;;;;10406523;28;20046;-63
2023/06/07 05:26:33;;;;;;;6.72;2.10;;;;;;;;;;10406531;28;20412;-64
2023/06/07 05:31:35;;;;;;;9.00;2.15;;;;;;;;;;10407446;28;20080;-63
2023/06/07 05:36:36;;;;;;;4.30;2.15;;;;;;;;;;10406432;28;20026;-63
2023/06/07 05:41:37;;;;;;;6.10;1.77;;;;;;;;;;10402705;28;20050;-62
2023/06/07 05:46:38;;;;;;;7.45;2.05;;;;;;;;;;10403311;28;20087;-63
2023/06/07 05:51:38;;;;;;;2.70;1.42;;;;;;;;;;10404252;28;20492;-62
2023/06/07 05:56:39;;;;;;;3.63;1.70;;;;;;;;;;10414552;28;20025;-57
2023/06/07 06:01:40;;;;;;;11.90;2.17;;;;;;;;;;10410416;28;20025;-56
2023/06/07 06:06:41;;;;;;;5.60;2.03;;;;;;;;;;10402996;28;20041;-61
2023/06/07 06:11:42;;;;;;;12.80;2.38;;;;;;;;;;10402714;28;20105;-58
2023/06/07 06:16:42;;;;;;;6.38;1.80;;;;;;;;;;10393486;28;20029;-61
2023/06/07 06:21:43;;;;;;;3.70;2.10;;;;;;;;;;10404711;28;20389;-56
2023/06/07 06:26:43;;;;;;;3.10;1.63;;;;;;;;;;10406493;28;20036;-59
2023/06/07 06:31:51;;;;;;;3.13;1.52;;;;;;;;;;10405627;28;20025;-59
2023/06/07 06:36:52;;;;;;;5.10;1.35;;;;;;;;;;10405887;28;20022;-57
2023/06/07 06:41:55;;;;;;;5.25;1.63;;;;;;;;;;10404817;28;20440;-57
2023/06/07 06:46:55;;;;;;;4.85;1.88;;;;;;;;;;10404776;28;20021;-58
2023/06/07 06:51:56;;;;;;;2.33;1.60;;;;;;;;;;10404957;28;20029;-60
2023/06/07 06:56:57;;;;;;;5.78;1.50;;;;;;;;;;10399691;28;20036;-60
2023/06/07 07:01:58;;;;;;;1.73;1.52;;;;;;;;;;10411686;28;20045;-60
2023/06/07 07:06:59;;;;;;;4.63;1.90;;;;;;;;;;10406089;28;20906;-61
2023/06/07 07:11:59;;;;;;;2.38;1.65;;;;;;;;;;10411900;28;20029;-60
2023/06/07 07:17:00;;;;;;;1.55;1.10;;;;;;;;;;10412842;28;20053;-61
2023/06/07 07:22:01;;;;;;;2.10;1.40;;;;;;;;;;10412259;28;20436;-59
2023/06/07 07:27:01;;;;;;;2.97;1.50;;;;;;;;;;10411575;28;20119;-60
2023/06/07 07:32:02;;;;;;;2.72;1.30;;;;;;;;;;10411502;28;20040;-61
2023/06/07 07:37:04;;;;;;;5.13;1.10;;;;;;;;;;10411332;28;20029;-57
2023/06/07 07:42:05;;;;;;;2.53;1.25;;;;;;;;;;10411575;28;20038;-62
2023/06/07 07:47:07;;;;;;;3.17;1.38;;;;;;;;;;10409057;28;20061;-62
2023/06/07 07:52:07;;;;;;;1.42;1.27;;;;;;;;;;10410576;28;20489;-56
2023/06/07 07:57:08;;;;;;;1.77;1.50;;;;;;;;;;10411444;28;20034;-59
2023/06/07 08:02:09;;;;;;;2.03;1.40;;;;;;;;;;10411422;28;20033;-59
2023/06/07 08:07:15;;;;;;;3.78;1.40;;;;;;;;;;10410958;28;20062;-62
2023/06/07 08:12:15;;;;;;;1.98;1.10;;;;;;;;;;10409185;28;20083;-63
2023/06/07 08:17:20;;;;;;;2.40;1.55;;;;;;;;;;10410802;28;20032;-60
2023/06/07 08:22:20;;;;;;;1.65;1.52;;;;;;;;;;10410397;28;20542;-61
2023/06/07 08:27:21;;;;;;;1.45;1.13;;;;;;;;;;10410327;28;20080;-57
2023/06/07 08:32:22;;;;;;;6.65;1.70;;;;;;;;;;10410572;28;20067;-61
2023/06/07 08:37:22;;;;;;;1.98;1.27;;;;;;;;;;10410097;28;20029;-63
2023/06/07 08:42:23;;;;;;;1.48;1.20;;;;;;;;;;10409431;28;20049;-54
2023/06/07 08:47:25;;;;;;;1.40;1.30;;;;;;;;;;10409959;28;20026;-57
2023/06/07 08:52:26;;;;;;;1.77;1.30;;;;;;;;;;10409361;28;20146;-57
2023/06/07 08:57:52;;;;;;;2.10;1.30;;;;;;;;;;10409084;28;20071;-61
2023/06/07 09:02:53;;;;;;;1.02;1.02;;;;;;;;;;10409103;28;20018;-63
2023/06/07 09:07:53;;;;;;;1.60;1.20;;;;;;;;;;10408975;28;20461;-63
2023/06/07 09:12:54;;;;;;;1.13;1.00;;;;;;;;;;10408494;28;20021;-60
2023/06/07 09:18:13;;;;;;;2.70;1.20;;;;;;;;;;10408593;28;20033;-55
2023/06/07 09:23:37;;;;;;;1.00;1.00;;;;;;;;;;10408207;28;20056;-63
2023/06/07 09:28:38;;;;;;;1.80;1.15;;;;;;;;;;10407906;28;20033;-63
2023/06/07 09:33:39;;;;;;;1.85;1.15;;;;;;;;;;10407709;28;20040;-61
2023/06/07 09:38:41;;;;;;;1.77;0.95;;;;;;;;;;10407487;28;20036;-63
2023/06/07 09:43:50;;;;;;;1.27;1.02;;;;;;;;;;10407663;28;20025;-62
2023/06/07 09:48:53;;;;;;;1.38;1.23;;;;;;;;;;10407820;28;20071;-60
2023/06/07 09:54:01;;;;;;;2.45;1.10;;;;;;;;;;10407198;28;20021;-62
2023/06/07 09:59:08;;;;;;;;;;;;;;;;;;10408097;28;20370;-63
2023/06/07 10:04:11;;;;;;;1.27;1.17;;;;;;;;;;10407346;28;19952;-61
2023/06/07 10:09:14;;;;;;;2.00;1.30;;;;;;;;;;10407003;28;20504;-62
2023/06/07 10:14:19;;;;;;;1.02;1.00;;;;;;;;;;10406840;28;20028;-63
2023/06/07 10:19:30;;;;;;;1.83;0.88;;;;;;;;;;10406492;28;20021;-63
2023/06/07 10:24:56;;;;;;;1.27;1.10;;;;;;;;;;10405650;28;20390;-60
2023/06/07 10:30:11;;;;;;;1.00;0.90;;;;;;;;;;10405385;28;20022;-61
2023/06/07 10:35:12;;;;;;;1.27;1.17;;;;;;;;;;10412127;28;20033;-61
2023/06/07 10:40:14;;;;;;;1.17;1.10;;;;;;;;;;10414254;28;20099;-63
2023/06/07 10:45:27;;;;;;;1.63;1.15;;;;;;;;;;10414452;28;20033;-62
2023/06/07 10:50:28;;;;;;;1.20;1.10;;;;;;;;;;10414062;28;20028;-63
2023/06/07 10:55:31;;;;;;;1.53;1.20;;;;;;;;;;10413599;28;20032;-63
2023/06/07 11:00:33;;;;;;;1.77;1.20;;;;;;;;;;10413137;28;20839;-57
2023/06/07 11:06:01;;;;;;;3.63;1.23;;;;;;;;;;10413292;28;20068;-62
2023/06/07 11:11:23;;;;;;;1.73;1.00;;;;;;;;;;10413865;28;20061;-58
2023/06/07 11:16:23;;;;;;;2.55;2.05;;;;;;;;;;10412870;28;20037;-62
2023/06/07 11:21:27;;;;;;;2.70;2.30;;;;;;;;;;10412808;28;20025;-60
2023/06/07 11:26:34;;;;;;;3.47;2.40;;;;;;;;;;10412471;28;20530;-58
2023/06/07 11:31:35;;;;;;;2.22;1.90;;;;;;;;;;10412665;28;20137;-59
2023/06/07 11:36:35;;;;;;;3.95;2.53;;;;;;;;;;10412121;28;20171;-62
2023/06/07 11:41:38;;;;;;;2.60;2.28;;;;;;;;;;10412077;28;20489;-65
2023/06/07 11:46:51;;;;;;;2.53;2.33;;;;;;;;;;10411012;28;20957;-65
2023/06/07 11:51:57;;;;;;;2.85;2.15;;;;;;;;;;10411711;28;20041;-66
2023/06/07 11:56:58;;;;;;;4.60;2.30;;;;;;;;;;10411086;28;20025;-64
2023/06/07 12:01:59;;;;;;;5.05;2.20;;;;;;;;;;10410927;28;20116;-64
2023/06/07 12:07:17;;;;;;;2.83;2.20;;;;;;;;;;10411333;28;20459;-62
2023/06/07 12:12:18;;;;;;;4.78;2.55;;;;;;;;;;10410735;28;20509;-65
2023/06/07 12:17:20;;;;;;;2.85;2.08;;;;;;;;;;10410711;28;20026;-63
2023/06/07 12:22:25;;;;;;;6.35;2.30;;;;;;;;;;10409963;28;20026;-62
2023/06/07 12:27:26;;;;;;;3.85;2.03;;;;;;;;;;10410979;28;20036;-62
2023/06/07 12:32:27;;;;;;;3.50;1.85;;;;;;;;;;10410560;28;20465;-65
2023/06/07 12:37:27;;;;;;;5.75;2.20;;;;;;;;;;10410532;28;20041;-61
2023/06/07 12:42:28;;;;;;;7.43;2.67;;;;;;;;;;10409272;28;20049;-64
2023/06/07 12:47:28;;;;;;;5.63;3.60;;;;;;;;;;10410191;28;20168;-62
2023/06/07 12:52:29;;;;;;;9.43;5.10;;;;;;;;;;10409400;28;20389;-63
2023/06/07 12:57:30;;;;;;;7.30;4.53;;;;;;;;;;10408817;28;20432;-58
2023/06/07 13:02:30;;;;;;;4.05;3.75;;;;;;;;;;10409054;28;20022;-58
2023/06/07 13:07:32;;;;;;;5.78;3.88;;;;;;;;;;10407454;28;20036;-59
2023/06/07 13:12:33;;;;;;;6.80;4.57;;;;;;;;;;10407900;28;20029;-61
2023/06/07 13:17:34;;;;;;;4.43;4.03;;;;;;;;;;10408267;28;20116;-58
2023/06/07 13:22:35;;;;;;;4.22;3.80;;;;;;;;;;10407910;28;20044;-59
2023/06/07 13:27:37;;;;;;;3.97;3.30;;;;;;;;;;10408182;28;20261;-53
2023/06/07 13:32:37;;;;;;;4.38;3.00;;;;;;;;;;10401975;28;20094;-59
2023/06/07 13:37:38;;;;;;;4.60;2.90;;;;;;;;;;10407249;28;20055;-55
2023/06/07 13:42:38;;;;;;;4.30;2.83;;;;;;;;;;10408096;28;20045;-60
2023/06/07 13:47:39;;;;;;;2.90;2.42;;;;;;;;;;10407382;28;20032;-61
2023/06/07 13:52:41;;;;;;;4.72;2.58;;;;;;;;;;10407806;28;20046;-62
2023/06/07 13:57:41;;;;;;;2.65;2.00;;;;;;;;;;10407434;28;20079;-59
2023/06/07 14:02:42;;;;;;;1.88;1.65;;;;;;;;;;10406522;28;20111;-62
2023/06/07 14:07:43;;;;;;;2.40;1.90;;;;;;;;;;10406226;28;20237;-61
2023/06/07 14:12:43;;;;;;;2.08;1.60;;;;;;;;;;10406747;28;20056;-62
2023/06/07 14:17:44;;;;;;;1.60;1.50;;;;;;;;;;10406560;28;20022;-63
2023/06/07 14:22:44;;;;;;;4.10;1.90;;;;;;;;;;10406784;28;20030;-62
2023/06/07 14:27:45;;;;;;;1.77;1.67;;;;;;;;;;10406604;28;20439;-60
2023/06/07 14:32:45;;;;;;;2.50;1.77;;;;;;;;;;10405784;28;20679;-59
2023/06/07 14:37:46;;;;;;;2.40;1.73;;;;;;;;;;10406766;28;20393;-55
2023/06/07 14:42:47;;;;;;;2.03;1.52;;;;;;;;;;10406118;28;20429;-63
2023/06/07 14:47:48;;;;;;;1.90;1.70;;;;;;;;;;10406323;28;20577;-60
2023/06/07 14:52:48;;;;;;;1.67;1.52;;;;;;;;;;10405540;28;20017;-54
2023/06/07 14:57:50;;;;;;;2.13;1.60;;;;;;;;;;10406603;28;20025;-54
2023/06/07 15:02:50;;;;;;;1.80;1.60;;;;;;;;;;10405914;28;20185;-54
2023/06/07 15:07:51;;;;;;;1.65;1.50;;;;;;;;;;10405804;28;20223;-57
2023/06/07 15:12:51;;;;;;;1.85;1.50;;;;;;;;;;10405651;28;20025;-56
2023/06/07 15:17:52;;;;;;;3.10;1.50;;;;;;;;;;10405368;28;20029;-54
2023/06/07 15:22:53;;;;;;;1.95;1.45;;;;;;;;;;10412904;28;20036;-54
2023/06/07 15:27:54;;;;;;;2.58;1.67;;;;;;;;;;10412630;28;20448;-55
2023/06/07 15:32:54;;;;;;;2.70;1.80;;;;;;;;;;10412623;28;20029;-55
2023/06/07 15:37:55;;;;;;;1.60;1.50;;;;;;;;;;10412651;28;20034;-54
2023/06/07 15:42:56;;;;;;;1.60;1.50;;;;;;;;;;10412529;28;20113;-56
2023/06/07 15:47:59;;;;;;;1.55;1.45;;;;;;;;;;10411601;28;20045;-53
2023/06/07 15:53:02;;;;;;;1.55;1.45;;;;;;;;;;10411541;28;20029;-61
2023/06/07 15:58:03;;;;;;;2.35;1.70;;;;;;;;;;10411615;28;20029;-62
2023/06/07 16:03:04;;;;;;;2.30;1.80;;;;;;;;;;10411453;28;20037;-61
2023/06/07 16:08:05;;;;;;;1.77;1.50;;;;;;;;;;10411262;28;20074;-61
2023/06/07 16:13:05;;;;;;;1.67;1.40;;;;;;;;;;10411075;28;20029;-61
2023/06/07 16:18:06;;;;;;;1.65;1.55;;;;;;;;;;10410571;28;20022;-62
2023/06/07 16:23:07;;;;;;;3.85;1.75;;;;;;;;;;10405662;28;20083;-56
2023/06/07 16:28:08;;;;;;;2.17;1.67;;;;;;;;;;10418090;28;20033;-58
2023/06/07 16:33:09;;;;;;;1.70;1.60;;;;;;;;;;10409559;28;20535;-57
2023/06/07 16:38:10;;;;;;;3.47;1.60;;;;;;;;;;10409796;28;20033;-59
2023/06/07 16:43:10;;;;;;;3.45;2.00;;;;;;;;;;10409200;28;20049;-61
2023/06/07 16:48:11;;;;;;;1.92;1.80;;;;;;;;;;10409855;28;20033;-62
2023/06/07 16:53:11;;;;;;;3.17;1.95;;;;;;;;;;10409654;28;20064;-62
2023/06/07 16:58:12;;;;;;;3.00;1.80;;;;;;;;;;10414819;28;20042;-59
2023/06/07 17:03:13;;;;;;;2.38;1.67;;;;;;;;;;10408928;28;20025;-59
2023/06/07 17:08:13;;;;;;;3.72;1.67;;;;;;;;;;10408855;28;20021;-62
2023/06/07 17:13:17;;;;;;;2.53;1.77;;;;;;;;;;10408142;28;20033;-60
2023/06/07 17:18:17;;;;;;;1.88;1.67;;;;;;;;;;10406587;28;20120;-63
2023/06/07 17:23:18;;;;;;;2.28;1.73;;;;;;;;;;10407821;28;20036;-63
2023/06/07 17:28:19;;;;;;;3.10;1.80;;;;;;;;;;10408526;28;20022;-59
2023/06/07 17:33:20;;;;;;;2.60;1.88;;;;;;;;;;10407551;28;20299;-57
2023/06/07 17:38:21;;;;;;;3.28;1.90;;;;;;;;;;10389943;28;20179;-56
2023/06/07 17:43:21;;;;;;;2.10;1.90;;;;;;;;;;10407255;28;20144;-59
2023/06/07 17:48:24;;;;;;;4.18;1.90;;;;;;;;;;10407747;28;20489;-61
2023/06/07 17:53:25;;;;;;;2.10;1.90;;;;;;;;;;10406036;28;20139;-61
2023/06/07 17:58:25;;;;;;;2.08;1.85;;;;;;;;;;10407327;28;20083;-58
2023/06/07 18:03:27;;;;;;;2.70;1.92;;;;;;;;;;10407607;28;20040;-59
2023/06/07 18:08:27;;;;;;;4.07;2.00;;;;;;;;;;10405954;28;20052;-59
2023/06/07 18:13:29;;;;;;;1.85;1.67;;;;;;;;;;10407456;28;20040;-61
2023/06/07 18:18:30;;;;;;;2.10;1.90;;;;;;;;;;10415763;28;20021;-56
2023/06/07 18:23:30;;;;;;;2.28;2.00;;;;;;;;;;10409221;28;20029;-61
2023/06/07 18:28:31;;;;;;;2.65;2.22;;;;;;;;;;10407121;28;20488;-57
2023/06/07 18:33:35;;;;;;;3.13;2.35;;;;;;;;;;10406059;28;20274;-62
2023/06/07 18:38:36;;;;;;;2.47;1.98;;;;;;;;;;10404095;28;20033;-58
2023/06/07 18:43:39;;;;;;;2.17;1.90;;;;;;;;;;10403726;28;20025;-63
2023/06/07 18:48:39;;;;;;;3.40;2.40;;;;;;;;;;10400980;28;20382;-62
2023/06/07 18:53:40;;;;;;;2.20;2.00;;;;;;;;;;10405940;28;20022;-62
2023/06/07 18:58:41;;;;;;;3.20;2.22;;;;;;;;;;10412766;28;20076;-59
2023/06/07 19:03:42;;;;;;;2.10;1.83;;;;;;;;;;10411962;28;20025;-63
2023/06/07 19:08:43;;;;;;;2.80;2.40;;;;;;;;;;10412760;28;20060;-63
2023/06/07 19:13:48;;;;;;;6.78;2.80;;;;;;;;;;10401695;28;20029;-62
2023/06/07 19:18:48;;;;;;;2.38;2.00;;;;;;;;;;10412855;28;20056;-61
2023/06/07 19:23:49;;;;;;;5.07;2.53;;;;;;;;;;10421683;28;20064;-57
2023/06/07 19:28:49;;;;;;;3.30;2.35;;;;;;;;;;10412885;28;20025;-63
2023/06/07 19:33:50;;;;;;;4.05;2.25;;;;;;;;;;10411994;28;20045;-62
2023/06/07 19:38:52;;;;;;;2.88;2.10;;;;;;;;;;10412043;28;20519;-63
2023/06/07 19:43:53;;;;;;;6.43;2.60;;;;;;;;;;10411332;28;20033;-60
2023/06/07 19:48:53;;;;;;;4.40;2.35;;;;;;;;;;10411660;28;20079;-59
2023/06/07 19:53:56;;;;;;;3.22;2.10;;;;;;;;;;10411126;28;20029;-58
2023/06/07 19:58:57;;;;;;;4.95;2.35;;;;;;;;;;10411722;28;20014;-61
2023/06/07 20:03:57;;;;;;;3.70;2.33;;;;;;;;;;10409713;28;20025;-62
2023/06/07 20:08:58;;;;;;;4.53;2.30;;;;;;;;;;10409964;28;20366;-61
2023/06/07 20:13:58;;;;;;;3.78;2.05;;;;;;;;;;10410527;28;20033;-62
2023/06/07 20:18:59;;;;;;;3.38;2.47;;;;;;;;;;10410966;28;20032;-62
2023/06/07 20:24:00;;;;;;;3.63;2.28;;;;;;;;;;10409048;28;20457;-60
2023/06/07 20:29:01;;;;;;;3.42;2.08;;;;;;;;;;10418827;28;20033;-63
2023/06/07 20:34:02;;;;;;;3.13;2.00;;;;;;;;;;10411059;28;20029;-60
2023/06/07 20:39:03;;;;;;;3.85;2.38;;;;;;;;;;10418393;28;20049;-62
2023/06/07 20:44:07;;;;;;;3.58;2.22;;;;;;;;;;10408336;28;20034;-61
2023/06/07 20:49:08;;;;;;;4.13;2.00;;;;;;;;;;10408844;28;20018;-62
2023/06/07 20:54:08;;;;;;;4.30;2.30;;;;;;;;;;10408168;28;20088;-63
2023/06/07 20:59:09;;;;;;;4.93;2.10;;;;;;;;;;10408260;28;20036;-62
2023/06/07 21:04:09;;;;;;;3.40;2.35;;;;;;;;;;10408502;28;20030;-59
2023/06/07 21:09:10;;;;;;;2.60;2.30;;;;;;;;;;10408512;28;20029;-63
2023/06/07 21:14:11;;;;;;;3.17;1.80;;;;;;;;;;10408575;28;20176;-62
2023/06/07 21:19:11;;;;;;;3.15;2.10;;;;;;;;;;10408007;28;20030;-64
2023/06/07 21:24:12;;;;;;;2.25;1.60;;;;;;;;;;10408300;28;20533;-62
2023/06/07 21:29:12;;;;;;;2.05;1.85;;;;;;;;;;10407944;28;20402;-57
2023/06/07 21:34:13;;;;;;;2.60;1.83;;;;;;;;;;10407990;28;20030;-60
2023/06/07 21:39:13;;;;;;;2.30;1.80;;;;;;;;;;10408459;28;20041;-59
2023/06/07 21:44:14;;;;;;;4.43;2.00;;;;;;;;;;10407382;28;20018;-60
2023/06/07 21:49:14;;;;;;;4.18;2.20;;;;;;;;;;10406856;28;20029;-61
2023/06/07 21:54:15;;;;;;;2.78;1.92;;;;;;;;;;10404169;28;20032;-60
2023/06/07 21:59:17;;;;;;;4.60;2.25;;;;;;;;;;10379684;28;21599;-60
2023/06/07 22:04:18;;;;;;;3.78;2.22;;;;;;;;;;10405192;28;20035;-59
2023/06/07 22:09:18;;;;;;;2.92;2.40;;;;;;;;;;10405211;28;20040;-62
2023/06/07 22:14:20;;;;;;;4.50;2.50;;;;;;;;;;10406591;28;20037;-64
2023/06/07 22:19:21;;;;;;;3.28;2.97;;;;;;;;;;10384255;28;20421;-65
2023/06/07 22:24:23;;;;;;;7.82;2.80;;;;;;;;;;10405934;28;20025;-65
2023/06/07 22:29:23;;;;;;;8.20;3.30;;;;;;;;;;10408745;28;20071;-64
2023/06/07 22:34:25;;;;;;;4.60;3.17;;;;;;;;;;10413947;28;20366;-64
2023/06/07 22:39:25;;;;;;;4.65;3.10;;;;;;;;;;10414414;28;20580;-64
2023/06/07 22:44:26;;;;;;;6.10;3.47;;;;;;;;;;10409616;28;20257;-63
2023/06/07 22:49:28;;;;;;;5.88;3.60;;;;;;;;;;10413651;28;20029;-63
2023/06/07 22:54:29;;;;;;;5.40;3.35;;;;;;;;;;10413260;28;20280;-62
2023/06/07 22:59:30;;;;;;;5.05;3.30;;;;;;;;;;10413739;28;20248;-63
2023/06/07 23:04:33;;;;;;;4.70;3.50;;;;;;;;;;10413316;28;20551;-63
2023/06/07 23:09:35;;;;;;;6.50;3.35;;;;;;;;;;10413021;28;20100;-63
2023/06/07 23:14:36;;;;;;;6.85;3.47;;;;;;;;;;10413015;28;20120;-59
2023/06/07 23:19:37;;;;;;;5.03;3.28;;;;;;;;;;10410789;28;20113;-58
2023/06/07 23:24:38;;;;;;;4.78;3.38;;;;;;;;;;10411749;28;20461;-60
2023/06/07 23:29:39;;;;;;;3.95;3.42;;;;;;;;;;10410904;28;20068;-60
2023/06/07 23:34:39;;;;;;;3.72;3.42;;;;;;;;;;10388076;28;20044;-63
2023/06/07 23:39:42;;;;;;;4.65;3.05;;;;;;;;;;10411594;28;20045;-60
2023/06/07 23:44:42;;;;;;;3.47;3.15;;;;;;;;;;10412414;28;20045;-62
2023/06/07 23:49:44;;;;;;;4.47;3.70;;;;;;;;;;10411395;28;20032;-63
2023/06/07 23:54:46;;;;;;;5.95;3.70;;;;;;;;;;10412076;28;20029;-62
2023/06/07 23:59:46;;;;;;;15.27;4.47;;;;;;;;;;10409600;28;20104;-64
